M I D A S
Marine Information and Data Acquisition System
Tripno 1329 of the Zeeleeuw from 2007-02-09 07:28:21 to 2007-02-09 17:44:42
Back to CruiseResearch ActivitiesStationsMapUnderway DataData graphs

EquipmentUnitsComment
TimeDGPSUTC
LatitudeDGPSDM.mWGS84
LongitudeDGPSDM.mWGS84
HeadingGyrodeg 
SOGDGPSknotsSpeed over ground
COGDGPSdegCourse over ground
DepthEcho soundermeters200 kHz
Missing or incorrect values are displayed as -999
Navigation data collected by the RV Zeeleeuw from 2007-02-09 07:11:29 to 2007-02-09 17:54:29
                                                                                    Next 1000 lines
Time Latitude Longitude Heading SOG COG Depth
2007-02-09 07:11:38 51°13.598 2°56.095 113.3 0.4 288 8.2
2007-02-09 07:11:44 51°13.598 2°56.093 113.1 0.6 290 8.3
2007-02-09 07:11:49 51°13.599 2°56.092 113.1 0.8 291 8.4
2007-02-09 07:11:54 51°13.599 2°56.089 113.1 1.1 292 8.6
2007-02-09 07:11:59 51°13.6 2°56.087 113.3 1.3 292 8.6
2007-02-09 07:12:03 51°13.601 2°56.084 113.7 1.6 293 8.6
2007-02-09 07:12:09 51°13.602 2°56.079 114.1 1.9 293 -999
2007-02-09 07:12:14 51°13.603 2°56.075 114.6 2.2 293 -999
2007-02-09 07:12:20 51°13.604 2°56.069 115 2.4 293 -999
2007-02-09 07:12:26 51°13.606 2°56.062 115.4 2.7 294 -999
2007-02-09 07:12:32 51°13.608 2°56.055 115.9 3 294 -999
2007-02-09 07:12:37 51°13.609 2°56.048 116.4 3.2 294 -999
2007-02-09 07:12:41 51°13.611 2°56.043 116.8 3.6 294 -999
2007-02-09 07:12:47 51°13.614 2°56.033 117 3.9 294 -999
2007-02-09 07:12:52 51°13.616 2°56.025 117.3 4.2 294 -999
2007-02-09 07:12:58 51°13.619 2°56.014 117.6 4.5 294 -999
2007-02-09 07:13:02 51°13.621 2°56.007 118 4.7 295 -999
2007-02-09 07:13:07 51°13.624 2°55.997 118.3 4.9 295 -999
2007-02-09 07:13:12 51°13.627 2°55.987 118.7 5.1 295 -999
2007-02-09 07:13:17 51°13.63 2°55.977 119.3 5.2 296 -999
2007-02-09 07:13:23 51°13.634 2°55.965 119.9 5.2 296 -999
2007-02-09 07:13:27 51°13.636 2°55.956 120.3 5.1 296 -999
2007-02-09 07:13:32 51°13.64 2°55.947 120.6 5 297 -999
2007-02-09 07:13:37 51°13.643 2°55.937 120.7 4.9 297 -999
2007-02-09 07:13:42 51°13.646 2°55.927 121.1 4.8 297 4.7
2007-02-09 07:13:47 51°13.649 2°55.918 121.2 4.8 298 -999
2007-02-09 07:13:52 51°13.652 2°55.909 121.6 4.7 298 4.6
2007-02-09 07:13:56 51°13.654 2°55.902 121.7 4.6 298 4.9
2007-02-09 07:14:02 51°13.658 2°55.891 121.7 4.5 298 -999
2007-02-09 07:14:07 51°13.66 2°55.883 121.4 4.4 298 -999
2007-02-09 07:14:12 51°13.663 2°55.874 120.9 4.3 298 -999
2007-02-09 07:14:16 51°13.666 2°55.868 120.2 4.2 297 -999
2007-02-09 07:14:22 51°13.669 2°55.858 119.4 4.1 298 -999
2007-02-09 07:14:27 51°13.671 2°55.85 118.9 3.9 297 -999
2007-02-09 07:14:32 51°13.674 2°55.843 118.1 3.8 297 -999
2007-02-09 07:14:37 51°13.676 2°55.835 117 3.7 296 -999
2007-02-09 07:14:42 51°13.678 2°55.828 116.1 3.6 296 11.6
2007-02-09 07:14:47 51°13.68 2°55.821 115.3 3.6 295 4.7
2007-02-09 07:14:52 51°13.683 2°55.814 114.3 3.5 295 11.6
2007-02-09 07:14:57 51°13.684 2°55.807 113 3.4 294 11.7
2007-02-09 07:15:02 51°13.686 2°55.8 111.9 3.3 293 11.7
2007-02-09 07:15:07 51°13.688 2°55.794 110.4 3.2 292 11.4
2007-02-09 07:15:12 51°13.689 2°55.788 108.8 3.1 290 11.9
2007-02-09 07:15:17 51°13.691 2°55.781 107.1 3 289 4.6
2007-02-09 07:15:21 51°13.692 2°55.776 105.3 2.9 287 12.1
2007-02-09 07:15:27 51°13.693 2°55.769 103.4 2.8 286 12.7
2007-02-09 07:15:31 51°13.694 2°55.765 101.3 2.7 283 12.5
2007-02-09 07:15:36 51°13.694 2°55.759 99.2 2.7 281 12.8
2007-02-09 07:15:41 51°13.695 2°55.753 97 2.7 279 13
2007-02-09 07:15:47 51°13.695 2°55.746 94.8 2.6 276 13.2
2007-02-09 07:15:52 51°13.696 2°55.741 92.7 2.4 275 13.3
2007-02-09 07:15:57 51°13.696 2°55.736 90.7 2.2 274 13.4
2007-02-09 07:16:02 51°13.697 2°55.732 88.9 1.8 272 13.5
2007-02-09 07:16:07 51°13.697 2°55.729 86.7 1.4 272 13.5
2007-02-09 07:16:12 51°13.697 2°55.726 83.7 1.2 273 13.3
2007-02-09 07:16:17 51°13.697 2°55.725 79.9 0.9 271 13.5
2007-02-09 07:16:21 51°13.697 2°55.723 76.3 0.7 280 13.8
2007-02-09 07:16:26 51°13.697 2°55.722 72 0.5 287 14
2007-02-09 07:16:31 51°13.697 2°55.721 69.3 0.4 308 13.9
2007-02-09 07:16:36 51°13.697 2°55.721 65.9 0.3 337 14.2
2007-02-09 07:16:41 51°13.698 2°55.721 62.2 0.4 356 14.4
2007-02-09 07:16:46 51°13.699 2°55.721 58.5 0.5 11 14.8
2007-02-09 07:16:51 51°13.699 2°55.722 54.5 0.8 21 15.4
2007-02-09 07:16:56 51°13.701 2°55.722 50.1 1 22 15.5
2007-02-09 07:17:01 51°13.703 2°55.723 45 1.2 20 15.1
2007-02-09 07:17:06 51°13.704 2°55.724 39.6 1.4 17 14.5
2007-02-09 07:17:10 51°13.706 2°55.725 33.7 1.6 13 13.7
2007-02-09 07:17:16 51°13.709 2°55.725 27.7 1.8 8 13.2
2007-02-09 07:17:21 51°13.712 2°55.725 21.6 2 3 12.8
2007-02-09 07:17:25 51°13.714 2°55.725 15.2 2.2 357 13.3
2007-02-09 07:17:30 51°13.717 2°55.725 9 2.4 353 12.8
2007-02-09 07:17:35 51°13.721 2°55.724 2.8 2.5 348 12.9
2007-02-09 07:17:40 51°13.724 2°55.722 356.3 2.9 342 12.8
2007-02-09 07:17:45 51°13.729 2°55.719 350.2 3.2 338 12.2
2007-02-09 07:17:50 51°13.734 2°55.716 345.3 3.8 336 11.7
2007-02-09 07:17:55 51°13.739 2°55.712 340.9 4.3 331 11.7
2007-02-09 07:18:00 51°13.745 2°55.707 337.6 4.8 331 11.3
2007-02-09 07:18:05 51°13.751 2°55.701 335.7 5.2 329 11.4
2007-02-09 07:18:10 51°13.758 2°55.695 334.7 5.6 330 11.8
2007-02-09 07:18:14 51°13.764 2°55.69 334.8 6 330 12.1
2007-02-09 07:18:19 51°13.771 2°55.683 335.3 6.3 331 12.1
2007-02-09 07:18:24 51°13.779 2°55.676 335.5 6.7 332 12.1
2007-02-09 07:18:29 51°13.788 2°55.669 336.1 6.9 333 12.1
2007-02-09 07:18:34 51°13.797 2°55.662 337.3 7.1 334 11.8
2007-02-09 07:18:39 51°13.806 2°55.655 338.3 7.3 335 12.2
2007-02-09 07:18:44 51°13.815 2°55.648 338.8 7.5 335 12
2007-02-09 07:18:49 51°13.825 2°55.641 338.9 7.6 335 11.9
2007-02-09 07:18:54 51°13.835 2°55.634 338.9 7.8 335 11.8
2007-02-09 07:18:58 51°13.843 2°55.628 339.1 7.9 335 11.8
2007-02-09 07:19:03 51°13.853 2°55.62 339.3 8.1 334 11.9
2007-02-09 07:19:09 51°13.865 2°55.611 339.3 8.2 335 11.9
2007-02-09 07:19:13 51°13.873 2°55.605 339.5 8.2 335 11.9
2007-02-09 07:19:19 51°13.886 2°55.596 339.6 8.3 336 11.9
2007-02-09 07:19:24 51°13.896 2°55.588 339.6 8.4 335 -999
2007-02-09 07:19:29 51°13.907 2°55.58 338.9 8.4 334 11.8
2007-02-09 07:19:34 51°13.917 2°55.572 338.9 8.5 335 11.8
2007-02-09 07:19:39 51°13.928 2°55.564 338.9 8.5 335 11.9
2007-02-09 07:19:44 51°13.939 2°55.556 339.5 8.5 335 11.9
2007-02-09 07:19:48 51°13.948 2°55.55 340 8.5 336 11.9
2007-02-09 07:19:53 51°13.958 2°55.542 340.2 8.6 335 11.8
2007-02-09 07:19:59 51°13.971 2°55.532 340 8.6 336 11.8
2007-02-09 07:20:04 51°13.982 2°55.525 340.2 8.6 336 11.8
2007-02-09 07:20:08 51°13.991 2°55.518 340.2 8.6 336 11.9
2007-02-09 07:20:14 51°14.004 2°55.509 340.5 8.6 337 11.8
2007-02-09 07:20:19 51°14.015 2°55.502 340.8 8.6 337 11.9
2007-02-09 07:20:24 51°14.026 2°55.495 341.1 8.6 337 11.8
2007-02-09 07:20:29 51°14.037 2°55.487 341.5 8.7 338 11.8
2007-02-09 07:20:34 51°14.049 2°55.48 341.1 8.7 336 11.9
2007-02-09 07:20:38 51°14.057 2°55.473 340.5 8.7 336 11.9
2007-02-09 07:20:44 51°14.071 2°55.464 340.4 8.7 336 11.9
2007-02-09 07:20:49 51°14.082 2°55.456 340.4 8.9 336 11.9
2007-02-09 07:20:53 51°14.091 2°55.449 340.2 9.1 335 -999
2007-02-09 07:20:59 51°14.105 2°55.439 339.9 9.4 335 11.8
2007-02-09 07:21:04 51°14.117 2°55.43 339 9.6 334 -999
2007-02-09 07:21:10 51°14.132 2°55.419 338.9 9.8 334 -999
2007-02-09 07:21:15 51°14.144 2°55.409 338.4 10 333 -999
2007-02-09 07:21:21 51°14.159 2°55.396 337.5 10.2 331 -999
2007-02-09 07:21:26 51°14.172 2°55.384 336.1 10.3 329 -999
2007-02-09 07:21:32 51°14.186 2°55.37 334.4 10.5 328 -999
2007-02-09 07:21:37 51°14.198 2°55.356 332.2 10.6 325 -999
2007-02-09 07:21:42 51°14.21 2°55.342 328.9 10.6 323 -999
2007-02-09 07:21:47 51°14.221 2°55.327 327 10.7 320 -999
2007-02-09 07:21:52 51°14.232 2°55.311 324.9 10.7 317 -999
2007-02-09 07:21:57 51°14.243 2°55.294 321.4 10.7 315 -999
2007-02-09 07:22:02 51°14.253 2°55.277 319.8 10.8 314 -999
2007-02-09 07:22:07 51°14.263 2°55.258 318 10.9 311 -999
2007-02-09 07:22:12 51°14.272 2°55.239 315.1 10.9 308 11.7
2007-02-09 07:22:17 51°14.281 2°55.22 312.4 10.9 306 -999
2007-02-09 07:22:22 51°14.29 2°55.2 310.5 10.9 306 11.6
2007-02-09 07:22:27 51°14.299 2°55.18 309.9 11 305 10.9
2007-02-09 07:22:32 51°14.307 2°55.16 309.5 11 305 11.1
2007-02-09 07:22:36 51°14.315 2°55.144 309.3 11.1 305 11.1
2007-02-09 07:22:41 51°14.324 2°55.124 309.3 11.3 305 11.4
2007-02-09 07:22:46 51°14.333 2°55.104 309.9 11.3 306 11.5
2007-02-09 07:22:51 51°14.342 2°55.083 310.3 11.4 306 11.8
2007-02-09 07:22:55 51°14.35 2°55.068 310.7 11.5 307 11.4
2007-02-09 07:23:00 51°14.36 2°55.047 311.3 11.6 309 11.7
2007-02-09 07:23:05 51°14.371 2°55.028 313.3 11.7 312 11.3
2007-02-09 07:23:10 51°14.383 2°55.01 315.8 11.9 316 11.3
2007-02-09 07:23:14 51°14.393 2°54.996 320.8 12 320 11.3
2007-02-09 07:23:19 51°14.406 2°54.979 324.5 12.2 323 11.5
2007-02-09 07:23:24 51°14.42 2°54.964 327.8 12.4 325 11.6
2007-02-09 07:23:29 51°14.435 2°54.949 330.6 12.5 327 11.6
2007-02-09 07:23:34 51°14.45 2°54.934 332.5 12.7 329 11.5
2007-02-09 07:23:39 51°14.466 2°54.921 334.5 12.7 332 11.1
2007-02-09 07:23:44 51°14.481 2°54.909 336.8 12.8 334 10.7
2007-02-09 07:23:48 51°14.494 2°54.9 339.4 12.8 337 10.6
2007-02-09 07:23:54 51°14.514 2°54.887 341.8 12.8 339 10.7
2007-02-09 07:23:58 51°14.528 2°54.88 344.4 12.8 342 10.5
2007-02-09 07:24:04 51°14.548 2°54.87 347.7 12.8 343 10.4
2007-02-09 07:24:08 51°14.562 2°54.863 348.7 12.8 344 10.4
2007-02-09 07:24:14 51°14.582 2°54.853 349.4 12.9 343 10.4
2007-02-09 07:24:18 51°14.596 2°54.846 349.2 12.9 343 10.1
2007-02-09 07:24:24 51°14.616 2°54.836 348.3 12.9 342 10.4
2007-02-09 07:24:28 51°14.63 2°54.829 347.5 12.9 341 10.3
2007-02-09 07:24:33 51°14.647 2°54.819 346.5 12.9 340 10.1
2007-02-09 07:24:38 51°14.664 2°54.81 346.1 13 340 10.1
2007-02-09 07:24:44 51°14.684 2°54.798 346 12.9 340 10.2
2007-02-09 07:24:49 51°14.701 2°54.789 345.8 13 341 10.1
2007-02-09 07:24:53 51°14.715 2°54.781 345.7 13 341 10
2007-02-09 07:24:58 51°14.732 2°54.771 345.7 13 341 10.2
2007-02-09 07:25:04 51°14.752 2°54.76 346 13 341 10.2
2007-02-09 07:25:08 51°14.766 2°54.753 346 13 341 10.2
2007-02-09 07:25:13 51°14.783 2°54.743 346.2 13 340 10.2
2007-02-09 07:25:18 51°14.8 2°54.733 345.8 13.1 341 10.3
2007-02-09 07:25:24 51°14.82 2°54.722 345.7 13 341 10.3
2007-02-09 07:25:28 51°14.834 2°54.714 345.6 13.1 341 10.2
2007-02-09 07:25:33 51°14.851 2°54.705 346.1 13.1 341 10.3
2007-02-09 07:25:38 51°14.868 2°54.696 346.2 13 342 10.2
2007-02-09 07:25:44 51°14.889 2°54.685 346.6 13 342 10.1
2007-02-09 07:25:48 51°14.902 2°54.678 346.5 13 341 10.7
2007-02-09 07:25:53 51°14.919 2°54.669 346.1 13 342 10.1
2007-02-09 07:25:58 51°14.937 2°54.66 346.2 13.1 342 9.8
2007-02-09 07:26:04 51°14.957 2°54.649 346.3 13 341 10.1
2007-02-09 07:26:09 51°14.974 2°54.64 346.4 12.9 342 9.8
2007-02-09 07:26:13 51°14.988 2°54.632 346.4 12.9 341 9.8
2007-02-09 07:26:18 51°15.005 2°54.623 346.2 13 341 9.7
2007-02-09 07:26:24 51°15.025 2°54.612 346.2 12.9 342 9.5
2007-02-09 07:26:28 51°15.039 2°54.606 346.8 13 343 9.5
2007-02-09 07:26:34 51°15.06 2°54.597 347.9 12.8 345 9.3
2007-02-09 07:26:38 51°15.073 2°54.591 348.7 12.8 345 9.4
2007-02-09 07:26:44 51°15.094 2°54.583 349.6 12.8 347 9.2
2007-02-09 07:26:48 51°15.108 2°54.577 350.2 12.8 346 9
2007-02-09 07:26:54 51°15.129 2°54.57 350.7 12.8 348 9.2
2007-02-09 07:26:58 51°15.143 2°54.566 351.6 12.9 348 9.4
2007-02-09 07:27:04 51°15.164 2°54.558 352 12.9 348 9.4
2007-02-09 07:27:08 51°15.178 2°54.553 352.3 12.9 347 9.5
2007-02-09 07:27:13 51°15.195 2°54.547 352.3 12.8 348 9.5
2007-02-09 07:27:18 51°15.213 2°54.541 352.3 12.9 348 9.6
2007-02-09 07:27:24 51°15.234 2°54.535 353.3 12.9 350 9.7
2007-02-09 07:27:28 51°15.248 2°54.531 354.1 13 350 9.5
2007-02-09 07:27:33 51°15.266 2°54.527 355.5 13 352 9.7
2007-02-09 07:27:38 51°15.284 2°54.522 356.1 13 350 9.8
2007-02-09 07:27:44 51°15.305 2°54.516 356 12.9 351 9.8
2007-02-09 07:27:48 51°15.319 2°54.513 356.4 12.8 352 9.5
2007-02-09 07:27:53 51°15.336 2°54.509 356.5 12.9 351 9.9
2007-02-09 07:27:58 51°15.354 2°54.504 356.3 12.8 351 9.9
2007-02-09 07:28:04 51°15.375 2°54.499 356.3 12.8 351 9.9
2007-02-09 07:28:08 51°15.389 2°54.495 356.3 12.8 351 10
2007-02-09 07:28:13 51°15.406 2°54.49 356.1 12.8 350 10
2007-02-09 07:28:18 51°15.424 2°54.486 356.3 12.9 351 10.3
2007-02-09 07:28:24 51°15.445 2°54.48 356.3 12.9 351 10.2
2007-02-09 07:28:29 51°15.463 2°54.476 356.4 12.8 351 10.3
2007-02-09 07:28:33 51°15.477 2°54.473 356.5 12.8 351 10.1
2007-02-09 07:28:38 51°15.494 2°54.468 356.6 12.9 350 10.3
2007-02-09 07:28:44 51°15.515 2°54.462 356.1 12.8 350 10.5
2007-02-09 07:28:48 51°15.529 2°54.459 355.9 12.9 351 10.4
2007-02-09 07:28:54 51°15.55 2°54.452 356.1 12.8 349 10.7
2007-02-09 07:28:58 51°15.564 2°54.449 355.6 12.7 351 10.5
2007-02-09 07:29:04 51°15.585 2°54.443 356.3 12.8 350 10.6
2007-02-09 07:29:08 51°15.599 2°54.439 356.4 12.8 351 10.6
2007-02-09 07:29:13 51°15.617 2°54.434 356.5 12.8 351 10.8
2007-02-09 07:29:18 51°15.634 2°54.43 356.6 12.8 352 10.9
2007-02-09 07:29:24 51°15.655 2°54.426 357 12.8 353 10.9
2007-02-09 07:29:28 51°15.669 2°54.424 358 12.8 354 10.9
2007-02-09 07:29:33 51°15.687 2°54.42 358.7 12.9 352 11
2007-02-09 07:29:38 51°15.705 2°54.417 358.3 12.8 354 11
2007-02-09 07:29:44 51°15.726 2°54.412 358.5 12.7 352 11
2007-02-09 07:29:48 51°15.74 2°54.41 358.3 12.8 353 11.1
2007-02-09 07:29:53 51°15.757 2°54.406 357.9 12.7 352 11.1
2007-02-09 07:29:58 51°15.774 2°54.402 358 12.6 353 11.1
2007-02-09 07:30:04 51°15.795 2°54.398 358 12.2 351 11.1
2007-02-09 07:30:08 51°15.808 2°54.394 357.9 12.1 352 11.2
2007-02-09 07:30:13 51°15.824 2°54.389 356.6 11.9 347 11.4
2007-02-09 07:30:18 51°15.84 2°54.382 353.2 11.8 344 11.3
2007-02-09 07:30:24 51°15.858 2°54.372 350.5 11.7 341 11.4
2007-02-09 07:30:28 51°15.87 2°54.364 346.6 11.6 336 11.6
2007-02-09 07:30:34 51°15.887 2°54.351 342.5 11.5 333 11.4
2007-02-09 07:30:38 51°15.898 2°54.341 339.2 11.5 331 11.7
2007-02-09 07:30:44 51°15.915 2°54.325 337.1 11.4 330 11.6
2007-02-09 07:30:48 51°15.926 2°54.314 335.2 11.4 328 11.6
2007-02-09 07:30:54 51°15.942 2°54.298 333.6 11.4 327 11.5
2007-02-09 07:30:58 51°15.952 2°54.286 332.9 11.5 326 11.8
2007-02-09 07:31:04 51°15.968 2°54.27 332.2 11.4 326 11.7
2007-02-09 07:31:08 51°15.978 2°54.258 331.9 11.1 325 11.8
2007-02-09 07:31:14 51°15.993 2°54.242 331.4 10.5 326 11.8
2007-02-09 07:31:18 51°16.002 2°54.232 330.9 9.9 325 11.9
2007-02-09 07:31:24 51°16.014 2°54.217 330.5 9.3 325 11.8
2007-02-09 07:31:28 51°16.023 2°54.209 330.2 8.9 325 11.9
2007-02-09 07:31:33 51°16.032 2°54.197 329.9 8.4 326 12.1
2007-02-09 07:31:38 51°16.042 2°54.188 332 7.9 329 11.9
2007-02-09 07:31:44 51°16.053 2°54.179 335.1 7.6 333 12.1
2007-02-09 07:31:48 51°16.06 2°54.173 338 7.2 336 12
2007-02-09 07:31:53 51°16.069 2°54.168 342.3 6.7 342 12.2
2007-02-09 07:31:58 51°16.078 2°54.165 348.1 6.3 348 12.1
2007-02-09 07:32:04 51°16.088 2°54.163 354.6 6 353 12.2
2007-02-09 07:32:09 51°16.096 2°54.163 0.8 5.7 -999 12.3
2007-02-09 07:32:13 51°16.102 2°54.164 6.7 5.4 7 12.3
2007-02-09 07:32:18 51°16.109 2°54.167 12.9 5.1 14 12.1
2007-02-09 07:32:24 51°16.116 2°54.171 19.4 4.8 20 12.1
2007-02-09 07:32:28 51°16.121 2°54.174 25.3 4.7 26 12.2
2007-02-09 07:32:33 51°16.126 2°54.179 31.4 4.6 31 12.2
2007-02-09 07:32:38 51°16.132 2°54.185 36.2 4.6 31 12.2
2007-02-09 07:32:44 51°16.138 2°54.192 38.4 4.5 35 12.3
2007-02-09 07:32:48 51°16.142 2°54.196 39 4.5 34 12.3
2007-02-09 07:32:54 51°16.149 2°54.202 38.5 4.6 30 12.3
2007-02-09 07:32:58 51°16.153 2°54.206 36.3 4.5 33 12.2
2007-02-09 07:33:04 51°16.159 2°54.212 34.5 4.5 30 12.3
2007-02-09 07:33:08 51°16.164 2°54.216 33.3 4.4 30 12.3
2007-02-09 07:33:14 51°16.17 2°54.222 32.6 4.4 29 12.2
2007-02-09 07:33:18 51°16.175 2°54.225 31.5 4.5 28 12.3
2007-02-09 07:33:24 51°16.181 2°54.231 30.7 4.5 28 12.4
2007-02-09 07:33:29 51°16.187 2°54.235 30.8 4.4 27 12.3
2007-02-09 07:33:33 51°16.191 2°54.239 31.1 4.5 31 12.3
2007-02-09 07:33:38 51°16.197 2°54.243 31.4 4.5 27 12.4
2007-02-09 07:33:44 51°16.203 2°54.249 31.2 4.5 29 12.2
2007-02-09 07:33:48 51°16.207 2°54.252 31.9 4.4 26 12.3
2007-02-09 07:33:53 51°16.213 2°54.258 32.6 4.5 31 12.2
2007-02-09 07:33:58 51°16.218 2°54.262 33.7 4.5 27 12.3
2007-02-09 07:34:04 51°16.224 2°54.269 35.1 4.5 32 12.4
2007-02-09 07:34:08 51°16.228 2°54.273 36.1 4.5 32 12.4
2007-02-09 07:34:13 51°16.233 2°54.278 37 4.5 34 12.3
2007-02-09 07:34:18 51°16.239 2°54.283 37.7 4.3 33 12.2
2007-02-09 07:34:24 51°16.244 2°54.289 37.6 4.1 33 12.1
2007-02-09 07:34:28 51°16.248 2°54.294 37.4 4.2 33 12.3
2007-02-09 07:34:33 51°16.253 2°54.298 36.8 4 33 12.3
2007-02-09 07:34:38 51°16.257 2°54.303 36.6 3.9 33 12.4
2007-02-09 07:34:44 51°16.263 2°54.308 36.5 3.7 34 12.3
2007-02-09 07:34:48 51°16.266 2°54.311 36.1 3.4 29 12.4
2007-02-09 07:34:53 51°16.27 2°54.315 35.5 3.2 33 12.4
2007-02-09 07:34:58 51°16.273 2°54.319 35.1 2.9 30 12.4
2007-02-09 07:35:04 51°16.276 2°54.323 36.1 2.6 41 12.3
2007-02-09 07:35:08 51°16.278 2°54.324 39 2.2 36 12.2
2007-02-09 07:35:14 51°16.281 2°54.328 42.3 1.8 40 12.2
2007-02-09 07:35:18 51°16.282 2°54.329 46.9 1.4 44 12.1
2007-02-09 07:35:24 51°16.283 2°54.332 50.3 1 41 12.3
2007-02-09 07:35:28 51°16.284 2°54.333 54.3 0.7 67 12.2
2007-02-09 07:35:34 51°16.285 2°54.333 58.5 0.7 27 12.2
2007-02-09 07:35:38 51°16.284 2°54.335 61.7 0.5 62 12.3
2007-02-09 07:35:44 51°16.285 2°54.335 64.8 0.5 55 12.3
2007-02-09 07:35:49 51°16.285 2°54.336 67.5 0.5 67 12.3
2007-02-09 07:35:53 51°16.286 2°54.337 70.2 0.5 60 12.3
2007-02-09 07:35:58 51°16.286 2°54.338 72.1 0.5 84 12.3
2007-02-09 07:36:04 51°16.286 2°54.339 74.5 0.5 71 12.2
2007-02-09 07:36:08 51°16.286 2°54.34 76.2 0.5 68 12.3
2007-02-09 07:36:13 51°16.286 2°54.341 78.1 0.5 100 12.2
2007-02-09 07:36:18 51°16.287 2°54.342 80.3 0.5 70 12.1
2007-02-09 07:36:24 51°16.286 2°54.343 82.8 0.4 93 12.2
2007-02-09 07:36:28 51°16.286 2°54.344 84.9 0.5 110 12.1
2007-02-09 07:36:33 51°16.286 2°54.345 86.8 0.4 73 12.2
2007-02-09 07:36:38 51°16.286 2°54.346 88.5 0.5 102 12.2
2007-02-09 07:36:44 51°16.286 2°54.347 90.4 0.5 89 12.3
2007-02-09 07:36:48 51°16.286 2°54.348 91.6 0.5 93 12.3
2007-02-09 07:36:53 51°16.285 2°54.349 92.9 0.5 98 12.3
2007-02-09 07:36:58 51°16.286 2°54.35 94 0.6 111 12.3
2007-02-09 07:37:04 51°16.285 2°54.351 95.2 0.5 94 12.3
2007-02-09 07:37:09 51°16.285 2°54.353 95.8 0.6 123 12.3
2007-02-09 07:37:13 51°16.285 2°54.353 97.1 0.5 87 12.1
2007-02-09 07:37:18 51°16.284 2°54.354 98.3 0.5 117 12.2
2007-02-09 07:37:24 51°16.284 2°54.356 98.7 0.5 116 12.1
2007-02-09 07:37:28 51°16.284 2°54.356 99.6 0.5 103 12.2
2007-02-09 07:37:34 51°16.283 2°54.357 99.8 0.6 122 12.2
2007-02-09 07:37:38 51°16.283 2°54.358 100.3 0.5 98 12.2
2007-02-09 07:37:44 51°16.283 2°54.36 100.8 0.6 126 12.3
2007-02-09 07:37:48 51°16.283 2°54.36 101.3 0.6 109 12.2
2007-02-09 07:37:53 51°16.282 2°54.361 101.4 0.6 129 12.2
2007-02-09 07:37:58 51°16.282 2°54.362 102.1 0.5 86 12.3
2007-02-09 07:38:04 51°16.281 2°54.363 101.7 0.6 140 12.2
2007-02-09 07:38:08 51°16.281 2°54.364 102.3 0.5 105 12.2
2007-02-09 07:38:13 51°16.281 2°54.365 102.4 0.6 118 12.3
2007-02-09 07:38:18 51°16.28 2°54.366 102.4 0.5 122 12.3
2007-02-09 07:38:24 51°16.28 2°54.368 102.2 0.6 127 12.2
2007-02-09 07:38:28 51°16.279 2°54.368 102.7 0.6 106 12.4
2007-02-09 07:38:33 51°16.279 2°54.369 102.2 0.7 138 12.3
2007-02-09 07:38:38 51°16.279 2°54.37 102.6 0.5 95 12.3
2007-02-09 07:38:44 51°16.278 2°54.372 102.3 0.7 126 12.2
2007-02-09 07:38:48 51°16.278 2°54.372 102.1 0.5 102 12.3
2007-02-09 07:38:53 51°16.278 2°54.374 101.9 0.6 133 12.2
2007-02-09 07:38:58 51°16.277 2°54.375 102 0.4 111 12.2
2007-02-09 07:39:04 51°16.277 2°54.375 101.7 0.5 124 12.2
2007-02-09 07:39:08 51°16.276 2°54.376 101.6 0.4 117 12.3
2007-02-09 07:39:13 51°16.276 2°54.376 101.1 0.4 155 12.2
2007-02-09 07:39:18 51°16.276 2°54.376 101.3 0.3 188 12.2
2007-02-09 07:39:24 51°16.275 2°54.376 100.9 0.4 216 12.2
2007-02-09 07:39:29 51°16.275 2°54.375 101 0.4 254 12.1
2007-02-09 07:39:33 51°16.275 2°54.374 101.3 0.5 236 12.3
2007-02-09 07:39:38 51°16.275 2°54.373 102 0.4 254 12.3
2007-02-09 07:39:44 51°16.274 2°54.372 102.4 0.5 234 12.2
2007-02-09 07:39:48 51°16.274 2°54.372 103 0.4 249 12.2
2007-02-09 07:39:54 51°16.273 2°54.371 103.9 0.4 240 12.2
2007-02-09 07:39:58 51°16.273 2°54.37 104.2 0.4 240 12.2
2007-02-09 07:40:04 51°16.273 2°54.37 104.8 0.4 239 12.2
2007-02-09 07:40:08 51°16.272 2°54.369 105.3 0.4 232 12.2
2007-02-09 07:40:14 51°16.272 2°54.368 105.8 0.3 232 12.2
2007-02-09 07:40:18 51°16.272 2°54.368 106 0.3 226 12.2
2007-02-09 07:40:24 51°16.271 2°54.367 106.9 0.3 225 12.3
2007-02-09 07:40:28 51°16.271 2°54.367 107.1 0.3 227 12.1
2007-02-09 07:40:33 51°16.271 2°54.366 108 0.2 227 12.2
2007-02-09 07:40:38 51°16.27 2°54.366 108.4 0.4 209 12.2
2007-02-09 07:40:44 51°16.27 2°54.365 109.2 0.2 203 12.3
2007-02-09 07:40:49 51°16.269 2°54.365 109.6 0.5 211 12.2
2007-02-09 07:40:53 51°16.269 2°54.364 110.4 0.3 201 12.1
2007-02-09 07:40:58 51°16.269 2°54.364 111.4 0.3 209 12.1
2007-02-09 07:41:04 51°16.269 2°54.363 111.6 0.3 216 12.1
2007-02-09 07:41:08 51°16.268 2°54.363 112.1 0.3 208 12.1
2007-02-09 07:41:13 51°16.268 2°54.363 112.5 0.3 209 12.2
2007-02-09 07:41:18 51°16.267 2°54.363 113.2 0.4 198 12.3
2007-02-09 07:41:24 51°16.267 2°54.363 113.8 0.3 189 12.2
2007-02-09 07:41:28 51°16.266 2°54.362 114.2 0.4 193 12.2
2007-02-09 07:41:34 51°16.266 2°54.362 114.9 0.3 206 12.2
2007-02-09 07:41:38 51°16.266 2°54.361 115.5 0.3 227 12.1
2007-02-09 07:41:44 51°16.265 2°54.36 115.9 0.4 246 12.1
2007-02-09 07:41:48 51°16.265 2°54.359 116.8 0.7 246 12.1
2007-02-09 07:41:54 51°16.265 2°54.357 117.8 0.7 267 12
2007-02-09 07:41:58 51°16.265 2°54.355 119.3 0.9 274 12.1
2007-02-09 07:42:04 51°16.265 2°54.353 120.5 0.9 279 12.2
2007-02-09 07:42:09 51°16.265 2°54.351 122.1 1.1 277 12.2
2007-02-09 07:42:14 51°16.266 2°54.348 124.4 1.2 289 12.1
2007-02-09 07:42:18 51°16.266 2°54.346 125.5 1.4 285 12.2
2007-02-09 07:42:24 51°16.267 2°54.342 127.1 1.4 289 12.1
2007-02-09 07:42:28 51°16.268 2°54.341 129.1 1.2 298 4.9
2007-02-09 07:42:34 51°16.268 2°54.337 131.1 1.3 287 12.1
2007-02-09 07:42:39 51°16.269 2°54.335 132 1.2 295 12.1
2007-02-09 07:42:44 51°16.269 2°54.333 133.7 1 294 4.8
2007-02-09 07:42:48 51°16.27 2°54.331 134.8 0.9 293 4.4
2007-02-09 07:42:53 51°16.27 2°54.329 135.6 0.9 296 12.2
2007-02-09 07:42:59 51°16.271 2°54.327 136.8 0.8 293 12.2
2007-02-09 07:43:04 51°16.271 2°54.326 137.7 0.8 297 12.2
2007-02-09 07:43:08 51°16.272 2°54.324 138.3 0.8 293 12.2
2007-02-09 07:43:13 51°16.272 2°54.323 139.2 0.8 290 12.1
2007-02-09 07:43:18 51°16.272 2°54.322 140.1 0.6 297 12.1
2007-02-09 07:43:24 51°16.273 2°54.32 140.7 0.6 288 12.2
2007-02-09 07:43:28 51°16.273 2°54.319 141.2 0.7 292 12.1
2007-02-09 07:43:33 51°16.273 2°54.318 142.2 0.6 296 12.1
2007-02-09 07:43:38 51°16.274 2°54.317 142.7 0.6 304 12.1
2007-02-09 07:43:44 51°16.274 2°54.315 143 0.5 305 12.1
2007-02-09 07:43:49 51°16.274 2°54.314 143 0.6 277 12.1
2007-02-09 07:43:53 51°16.275 2°54.313 143.9 0.5 298 12.1
2007-02-09 07:43:58 51°16.275 2°54.312 144.3 0.5 288 12.1
2007-02-09 07:44:04 51°16.275 2°54.311 144.4 0.5 293 12.2
2007-02-09 07:44:09 51°16.275 2°54.31 144.5 0.5 293 12.1
2007-02-09 07:44:13 51°16.275 2°54.309 144.7 0.5 284 12.2
2007-02-09 07:44:18 51°16.276 2°54.308 145.1 0.5 286 12.1
2007-02-09 07:44:24 51°16.276 2°54.307 145.4 0.5 272 12.1
2007-02-09 07:44:29 51°16.276 2°54.306 146.1 0.3 285 12.2
2007-02-09 07:44:33 51°16.276 2°54.305 146.6 0.4 277 12.1
2007-02-09 07:44:38 51°16.276 2°54.305 146.7 0.4 289 12
2007-02-09 07:44:44 51°16.276 2°54.303 146.9 0.5 274 12.1
2007-02-09 07:44:49 51°16.276 2°54.303 147.3 0.3 302 12.1
2007-02-09 07:44:53 51°16.276 2°54.302 147.4 0.5 264 12
2007-02-09 07:44:58 51°16.276 2°54.302 147.8 0.1 224 12.1
2007-02-09 07:45:04 51°16.275 2°54.301 147.4 0.4 211 12.2
2007-02-09 07:45:08 51°16.275 2°54.301 147.4 0.3 186 12.2
2007-02-09 07:45:13 51°16.275 2°54.301 147.4 0.3 178 12.1
2007-02-09 07:45:18 51°16.274 2°54.301 147.3 0.4 198 12.2
2007-02-09 07:45:24 51°16.273 2°54.301 147.3 0.3 198 12.1
2007-02-09 07:45:28 51°16.273 2°54.301 147.5 0.4 189 12.1
2007-02-09 07:45:33 51°16.272 2°54.301 147.4 0.4 176 12.1
2007-02-09 07:45:39 51°16.272 2°54.301 147.5 0.5 173 12.2
2007-02-09 07:45:44 51°16.271 2°54.3 147.4 0.5 180 12.1
2007-02-09 07:45:48 51°16.271 2°54.3 147.6 0.4 176 12.1
2007-02-09 07:45:53 51°16.27 2°54.3 147.5 0.4 185 12.1
2007-02-09 07:45:58 51°16.269 2°54.3 147.4 0.4 180 12
2007-02-09 07:46:04 51°16.268 2°54.3 147.3 0.5 184 12
2007-02-09 07:46:08 51°16.268 2°54.301 147.2 0.4 159 12
2007-02-09 07:46:14 51°16.267 2°54.301 146.6 0.5 174 12
2007-02-09 07:46:18 51°16.267 2°54.301 146.3 0.5 168 12.1
2007-02-09 07:46:24 51°16.266 2°54.301 146.1 0.5 175 12.1
2007-02-09 07:46:28 51°16.265 2°54.302 146 0.4 165 12.1
2007-02-09 07:46:34 51°16.264 2°54.301 145.7 0.5 182 12.1
2007-02-09 07:46:38 51°16.264 2°54.302 145.6 0.5 164 12.1
2007-02-09 07:46:44 51°16.263 2°54.302 145.8 0.5 166 12.2
2007-02-09 07:46:48 51°16.262 2°54.302 145.3 0.6 176 12.1
2007-02-09 07:46:54 51°16.262 2°54.303 145.6 0.5 171 12.1
2007-02-09 07:46:58 51°16.261 2°54.303 145.8 0.5 159 12.1
2007-02-09 07:47:04 51°16.26 2°54.303 145.2 0.6 172 12.2
2007-02-09 07:47:08 51°16.26 2°54.303 145.1 0.6 165 12.1
2007-02-09 07:47:14 51°16.259 2°54.303 145 0.7 177 12.1
2007-02-09 07:47:18 51°16.258 2°54.304 144.7 0.5 146 12.1
2007-02-09 07:47:24 51°16.257 2°54.304 144.2 0.6 170 12.1
2007-02-09 07:47:28 51°16.257 2°54.304 143.7 0.6 165 12.1
2007-02-09 07:47:33 51°16.256 2°54.305 143.6 0.5 158 12.1
2007-02-09 07:47:38 51°16.255 2°54.305 143 0.6 176 12
2007-02-09 07:47:44 51°16.254 2°54.305 142.7 0.6 172 12
2007-02-09 07:47:48 51°16.254 2°54.306 142.6 0.5 150 12.1
2007-02-09 07:47:53 51°16.253 2°54.306 141.6 0.6 162 12
2007-02-09 07:47:58 51°16.252 2°54.306 141.1 0.6 156 12
2007-02-09 07:48:04 51°16.251 2°54.307 140.7 0.5 164 12.1
2007-02-09 07:48:08 51°16.25 2°54.307 140.2 0.6 171 12
2007-02-09 07:48:13 51°16.25 2°54.308 140.1 0.6 167 12
2007-02-09 07:48:18 51°16.249 2°54.308 139.8 0.6 151 12.1
2007-02-09 07:48:24 51°16.248 2°54.308 139.1 0.6 169 12
2007-02-09 07:48:29 51°16.247 2°54.309 138.6 0.5 163 11.9
2007-02-09 07:48:34 51°16.246 2°54.309 138.3 0.6 160 12
2007-02-09 07:48:38 51°16.246 2°54.31 138 0.6 158 12.1
2007-02-09 07:48:44 51°16.245 2°54.31 137.9 0.7 167 12.1
2007-02-09 07:48:48 51°16.244 2°54.311 137.5 0.6 161 12
2007-02-09 07:48:54 51°16.243 2°54.311 137.9 0.7 166 12
2007-02-09 07:48:58 51°16.243 2°54.312 137.5 0.6 161 12
2007-02-09 07:49:04 51°16.242 2°54.312 137.6 0.6 151 12.1
2007-02-09 07:49:08 51°16.241 2°54.312 137.1 0.6 170 12.1
2007-02-09 07:49:14 51°16.24 2°54.313 137.1 0.6 165 12.1
2007-02-09 07:49:18 51°16.24 2°54.313 137.1 0.6 157 12.1
2007-02-09 07:49:24 51°16.239 2°54.313 136.8 0.5 161 12.1
2007-02-09 07:49:28 51°16.238 2°54.314 136.6 0.7 171 12
2007-02-09 07:49:34 51°16.237 2°54.314 136.7 0.6 162 12
2007-02-09 07:49:38 51°16.236 2°54.315 136.4 0.6 164 12.1
2007-02-09 07:49:44 51°16.235 2°54.315 136.4 0.7 166 12
2007-02-09 07:49:48 51°16.234 2°54.316 136.4 0.6 158 12.1
2007-02-09 07:49:53 51°16.233 2°54.316 136.2 0.6 163 12
2007-02-09 07:49:58 51°16.233 2°54.317 136 0.7 159 12
2007-02-09 07:50:04 51°16.232 2°54.317 135.7 0.7 161 12.1
2007-02-09 07:50:08 51°16.231 2°54.318 135.4 0.7 153 12
2007-02-09 07:50:13 51°16.23 2°54.318 135.1 0.8 165 12.1
2007-02-09 07:50:18 51°16.229 2°54.319 135 0.7 148 12
2007-02-09 07:50:24 51°16.228 2°54.319 134.9 0.7 165 12
2007-02-09 07:50:28 51°16.227 2°54.32 134.4 0.6 153 12
2007-02-09 07:50:34 51°16.226 2°54.32 134.3 0.7 160 12
2007-02-09 07:50:38 51°16.226 2°54.321 134 0.6 154 12.1
2007-02-09 07:50:44 51°16.225 2°54.321 133.5 0.8 175 12
2007-02-09 07:50:48 51°16.224 2°54.322 133.7 0.6 148 12
2007-02-09 07:50:54 51°16.223 2°54.322 133.5 0.7 169 12.1
2007-02-09 07:50:58 51°16.222 2°54.323 133.3 0.7 162 12
2007-02-09 07:51:04 51°16.221 2°54.323 133.4 0.7 160 12
2007-02-09 07:51:08 51°16.221 2°54.324 133.2 0.7 157 12
2007-02-09 07:51:14 51°16.22 2°54.324 133.1 0.7 169 12
2007-02-09 07:51:18 51°16.219 2°54.325 132.9 0.6 147 11.9
2007-02-09 07:51:24 51°16.218 2°54.325 132.7 0.8 172 11.9
2007-02-09 07:51:28 51°16.217 2°54.326 132.8 0.6 140 12
2007-02-09 07:51:34 51°16.216 2°54.326 132.4 0.8 173 12.1
2007-02-09 07:51:38 51°16.215 2°54.327 132.4 0.6 147 12
2007-02-09 07:51:44 51°16.214 2°54.327 132.4 0.7 170 12.1
2007-02-09 07:51:48 51°16.214 2°54.327 132.4 0.5 155 12
2007-02-09 07:51:53 51°16.213 2°54.327 132.3 0.6 185 12
2007-02-09 07:51:58 51°16.213 2°54.327 132.4 0.3 158 12
2007-02-09 07:52:04 51°16.212 2°54.327 132.4 0.5 210 12
2007-02-09 07:52:09 51°16.212 2°54.326 132.8 0.3 221 12
2007-02-09 07:52:13 51°16.212 2°54.326 133.5 0.4 239 12
2007-02-09 07:52:18 51°16.211 2°54.325 134.2 0.4 250 11.9
2007-02-09 07:52:24 51°16.211 2°54.324 134.8 0.4 240 11.8
2007-02-09 07:52:28 51°16.211 2°54.323 135.9 0.3 275 12
2007-02-09 07:52:33 51°16.212 2°54.322 136.7 0.6 259 12
2007-02-09 07:52:38 51°16.212 2°54.32 137.7 0.7 290 11.9
2007-02-09 07:52:44 51°16.212 2°54.318 139.2 0.8 297 11.9
2007-02-09 07:52:48 51°16.213 2°54.317 140.6 1.1 297 11.9
2007-02-09 07:52:54 51°16.214 2°54.314 141.8 1.3 303 12.1
2007-02-09 07:52:59 51°16.215 2°54.311 143.5 1.5 308 4.7
2007-02-09 07:53:04 51°16.216 2°54.308 145.5 1.7 310 -999
2007-02-09 07:53:10 51°16.218 2°54.305 147.3 1.8 312 -999
2007-02-09 07:53:15 51°16.221 2°54.302 149.2 2.1 317 -999
2007-02-09 07:53:21 51°16.223 2°54.298 150.9 2.2 318 -999
2007-02-09 07:53:26 51°16.226 2°54.295 152.8 2.4 322 -999
2007-02-09 07:53:32 51°16.229 2°54.29 153.8 2.7 324 -999
2007-02-09 07:53:37 51°16.233 2°54.287 155.3 2.9 326 -999
2007-02-09 07:53:42 51°16.236 2°54.283 156 3 328 -999
2007-02-09 07:53:47 51°16.24 2°54.279 157.1 3.1 327 -999
2007-02-09 07:53:52 51°16.244 2°54.276 158.2 3.2 331 -999
2007-02-09 07:53:57 51°16.247 2°54.273 159.6 3.1 332 -999
2007-02-09 07:54:02 51°16.251 2°54.27 161.3 2.9 333 -999
2007-02-09 07:54:07 51°16.254 2°54.267 162.3 2.7 335 -999
2007-02-09 07:54:12 51°16.257 2°54.264 163 2.5 333 -999
2007-02-09 07:54:17 51°16.26 2°54.263 163.6 2.1 335 4.8
2007-02-09 07:54:22 51°16.262 2°54.26 163.5 1.8 330 -999
2007-02-09 07:54:27 51°16.264 2°54.259 163 1.5 333 4.8
2007-02-09 07:54:32 51°16.265 2°54.258 162 1 325 11.9
2007-02-09 07:54:36 51°16.266 2°54.257 160.4 0.4 335 12
2007-02-09 07:54:41 51°16.266 2°54.257 158.2 0.1 229 12
2007-02-09 07:54:46 51°16.265 2°54.257 155.2 0.4 150 12
2007-02-09 07:54:51 51°16.264 2°54.259 150.3 0.9 142 12
2007-02-09 07:54:56 51°16.263 2°54.261 144.6 1.3 133 12
2007-02-09 07:55:00 51°16.261 2°54.263 139.8 1.8 130 12
2007-02-09 07:55:05 51°16.26 2°54.267 132.2 2 125 4.7
2007-02-09 07:55:10 51°16.259 2°54.271 125.8 2.2 117 12
2007-02-09 07:55:15 51°16.257 2°54.275 118.8 2.2 117 12
2007-02-09 07:55:19 51°16.257 2°54.279 112.9 2.2 112 12
2007-02-09 07:55:24 51°16.256 2°54.284 108.2 2.2 104 12
2007-02-09 07:55:29 51°16.255 2°54.288 103.8 2.2 102 12
2007-02-09 07:55:34 51°16.254 2°54.293 100.5 2.1 108 12
2007-02-09 07:55:38 51°16.254 2°54.296 99.4 1.8 96 12
2007-02-09 07:55:44 51°16.253 2°54.3 98 1.6 109 12
2007-02-09 07:55:49 51°16.253 2°54.302 96.3 1.1 96 11.9
2007-02-09 07:55:54 51°16.252 2°54.304 94 0.7 115 12
2007-02-09 07:55:58 51°16.252 2°54.304 91.9 0.4 140 12
2007-02-09 07:56:04 51°16.251 2°54.304 90.7 0.4 171 12
2007-02-09 07:56:09 51°16.251 2°54.304 90.2 0.1 160 12
2007-02-09 07:56:14 51°16.25 2°54.304 90 0.4 173 12
2007-02-09 07:56:18 51°16.25 2°54.304 89.3 0.3 179 11.9
2007-02-09 07:56:24 51°16.25 2°54.304 89.4 0.4 171 11.9
2007-02-09 07:56:29 51°16.249 2°54.304 89.2 0.2 170 12
2007-02-09 07:56:33 51°16.249 2°54.304 89.2 0.4 168 12
2007-02-09 07:56:39 51°16.248 2°54.305 89.2 0.3 154 12
2007-02-09 07:56:44 51°16.248 2°54.305 89.2 0.3 168 12
2007-02-09 07:56:49 51°16.248 2°54.305 89.3 0.3 167 11.9
2007-02-09 07:56:54 51°16.247 2°54.305 89.6 0.2 158 12
2007-02-09 07:56:58 51°16.247 2°54.305 89.5 0.4 169 11.9
2007-02-09 07:57:04 51°16.247 2°54.305 89.9 0.1 155 12
2007-02-09 07:57:08 51°16.246 2°54.305 90.1 0.5 181 11.9
2007-02-09 07:57:14 51°16.246 2°54.305 90.7 -999 172 11.8
2007-02-09 07:57:18 51°16.245 2°54.305 90.9 0.5 172 11.8
2007-02-09 07:57:24 51°16.245 2°54.305 91.3 0.1 158 11.9
2007-02-09 07:57:29 51°16.244 2°54.305 91.3 0.5 179 11.8
2007-02-09 07:57:34 51°16.244 2°54.305 91.5 0.2 174 11.8
2007-02-09 07:57:38 51°16.244 2°54.306 91.8 0.4 177 11.8
2007-02-09 07:57:44 51°16.243 2°54.306 92.1 0.2 178 11.8
2007-02-09 07:57:49 51°16.243 2°54.306 92.3 0.4 172 11.9
2007-02-09 07:57:54 51°16.242 2°54.306 92.7 0.3 163 11.9
2007-02-09 07:57:58 51°16.242 2°54.306 92.9 0.4 177 12
2007-02-09 07:58:04 51°16.242 2°54.306 92.7 0.4 166 11.9
2007-02-09 07:58:09 51°16.241 2°54.306 92.7 0.3 177 12
2007-02-09 07:58:14 51°16.241 2°54.306 92.8 0.4 176 11.9
2007-02-09 07:58:19 51°16.24 2°54.306 93 0.1 165 11.9
2007-02-09 07:58:24 51°16.24 2°54.306 93.2 0.5 173 11.9
2007-02-09 07:58:28 51°16.239 2°54.307 93.4 0.2 153 12
2007-02-09 07:58:34 51°16.239 2°54.307 93.3 0.5 171 11.9
2007-02-09 07:58:38 51°16.239 2°54.307 93.3 0.1 129 11.9
2007-02-09 07:58:44 51°16.238 2°54.307 93.6 0.6 167 12
2007-02-09 07:58:49 51°16.238 2°54.307 94 0.3 164 11.9
2007-02-09 07:58:53 51°16.237 2°54.307 94.3 0.3 163 11.9
2007-02-09 07:58:59 51°16.236 2°54.308 94.5 0.4 168 11.9
2007-02-09 07:59:04 51°16.236 2°54.308 94.9 0.3 166 11.9
2007-02-09 07:59:09 51°16.236 2°54.308 95.1 0.4 167 12
2007-02-09 07:59:14 51°16.235 2°54.308 95 0.4 174 12
2007-02-09 07:59:18 51°16.235 2°54.308 95.3 0.3 158 11.9
2007-02-09 07:59:24 51°16.234 2°54.308 95.3 0.3 170 11.9
2007-02-09 07:59:28 51°16.234 2°54.308 95.5 0.5 172 12
2007-02-09 07:59:34 51°16.233 2°54.309 95.5 0.2 168 11.8
2007-02-09 07:59:38 51°16.233 2°54.309 96 0.5 174 11.8
2007-02-09 07:59:44 51°16.233 2°54.309 96 0.3 165 11.9
2007-02-09 07:59:49 51°16.232 2°54.309 95.9 0.4 172 11.9
2007-02-09 07:59:54 51°16.232 2°54.309 95.9 0.3 169 11.9
2007-02-09 07:59:58 51°16.231 2°54.31 95.8 0.4 176 11.9
2007-02-09 08:00:04 51°16.231 2°54.31 95.7 0.3 165 11.9
2007-02-09 08:00:09 51°16.23 2°54.31 95.5 0.3 155 11.9
2007-02-09 08:00:14 51°16.23 2°54.31 95.2 0.3 156 11.9
2007-02-09 08:00:18 51°16.229 2°54.31 94.9 0.4 164 11.9
2007-02-09 08:00:24 51°16.229 2°54.311 95.1 0.3 155 11.9
2007-02-09 08:00:29 51°16.228 2°54.311 95 0.3 157 11.9
2007-02-09 08:00:34 51°16.228 2°54.311 94.6 0.4 154 11.8
2007-02-09 08:00:39 51°16.228 2°54.312 95 0.3 150 11.8
2007-02-09 08:00:44 51°16.227 2°54.312 94.7 0.3 144 11.8
2007-02-09 08:00:48 51°16.227 2°54.312 94.4 0.4 155 11.8
2007-02-09 08:00:54 51°16.227 2°54.313 94.6 0.2 117 11.9
2007-02-09 08:00:58 51°16.226 2°54.313 94.6 0.5 161 11.9
2007-02-09 08:01:04 51°16.225 2°54.314 94.7 0.4 153 11.9
2007-02-09 08:01:09 51°16.225 2°54.314 95 0.4 152 11.9
2007-02-09 08:01:13 51°16.224 2°54.314 94.9 0.3 145 12
2007-02-09 08:01:19 51°16.224 2°54.315 94.7 0.6 166 11.9
2007-02-09 08:01:24 51°16.223 2°54.315 95 0.4 161 11.8
2007-02-09 08:01:28 51°16.223 2°54.315 95.4 0.3 153 11.8
2007-02-09 08:01:34 51°16.222 2°54.316 95.8 0.5 158 11.9
2007-02-09 08:01:38 51°16.222 2°54.316 95.9 0.4 154 11.8
2007-02-09 08:01:44 51°16.221 2°54.317 96.6 0.5 141 11.9
2007-02-09 08:01:49 51°16.221 2°54.318 97.4 0.7 133 11.9
2007-02-09 08:01:53 51°16.22 2°54.32 99.3 0.9 130 11.8
2007-02-09 08:01:58 51°16.22 2°54.322 100.8 1 114 11.7
2007-02-09 08:02:04 51°16.219 2°54.324 103.2 1.2 122 11.8
2007-02-09 08:02:09 51°16.218 2°54.327 106.1 1.3 117 11.8
2007-02-09 08:02:14 51°16.216 2°54.329 109.5 1.5 124 11.8
2007-02-09 08:02:18 51°16.215 2°54.332 113.3 1.6 126 11.9
2007-02-09 08:02:24 51°16.213 2°54.335 117.5 1.8 130 11.9
2007-02-09 08:02:28 51°16.212 2°54.337 121.4 1.9 130 12
2007-02-09 08:02:33 51°16.21 2°54.34 126.4 2 139 11.9
2007-02-09 08:02:39 51°16.207 2°54.344 130.3 2 140 12
2007-02-09 08:02:44 51°16.205 2°54.347 134.7 2.2 147 11.8
2007-02-09 08:02:48 51°16.203 2°54.349 139.8 2.2 145 11.9
2007-02-09 08:02:54 51°16.199 2°54.351 145.3 2.4 159 12
2007-02-09 08:02:58 51°16.197 2°54.354 149.1 2.3 150 11.9
2007-02-09 08:03:04 51°16.193 2°54.355 153.3 2.5 163 11.8
2007-02-09 08:03:09 51°16.19 2°54.357 157.3 2.5 165 11.8
2007-02-09 08:03:13 51°16.187 2°54.357 162.2 2.6 173 11.9
2007-02-09 08:03:18 51°16.183 2°54.358 166.9 2.7 172 11.9
2007-02-09 08:03:24 51°16.179 2°54.358 171.1 2.7 182 11.9
2007-02-09 08:03:29 51°16.175 2°54.358 176 2.8 181 11.8
2007-02-09 08:03:33 51°16.172 2°54.357 180.6 2.7 188 11.8
2007-02-09 08:03:39 51°16.167 2°54.356 184.7 2.8 187 11.8
2007-02-09 08:03:44 51°16.163 2°54.354 189.4 2.9 198 11.8
2007-02-09 08:03:49 51°16.16 2°54.352 193.7 2.9 201 11.8
2007-02-09 08:03:53 51°16.157 2°54.35 198.5 3 201 11.8
2007-02-09 08:03:58 51°16.153 2°54.347 202.6 3 206 11.8
2007-02-09 08:04:04 51°16.148 2°54.343 207 3.1 209 11.9
2007-02-09 08:04:09 51°16.145 2°54.339 211.5 3.1 213 11.9
2007-02-09 08:04:13 51°16.142 2°54.336 215.9 3.1 216 11.8
2007-02-09 08:04:18 51°16.139 2°54.332 220.1 3.1 219 11.7
2007-02-09 08:04:24 51°16.135 2°54.326 223.7 3.2 224 11.7
2007-02-09 08:04:29 51°16.132 2°54.321 227.9 3.1 232 11.9
2007-02-09 08:04:33 51°16.13 2°54.317 232.7 3.3 228 11.8
2007-02-09 08:04:37 51°16.128 2°54.311 236.5 3.5 237 11.8
2007-02-09 08:04:44 51°16.124 2°54.302 241.1 3.7 239 11.8
2007-02-09 08:04:49 51°16.122 2°54.294 245.3 3.9 248 11.9
2007-02-09 08:04:54 51°16.119 2°54.286 250.4 4.1 245 11.9
2007-02-09 08:04:58 51°16.118 2°54.278 255.3 4.2 253 11.6
2007-02-09 08:05:04 51°16.116 2°54.267 259.8 4.4 260 11.9
2007-02-09 08:05:08 51°16.115 2°54.26 264.9 4.5 258 11.9
2007-02-09 08:05:14 51°16.115 2°54.248 269.4 4.5 266 11.7
2007-02-09 08:05:18 51°16.115 2°54.24 273.6 4.7 269 11.8
2007-02-09 08:05:24 51°16.116 2°54.226 278.5 5.1 275 11.7
2007-02-09 08:05:29 51°16.117 2°54.214 284.2 5.9 281 11.7
2007-02-09 08:05:33 51°16.119 2°54.202 289.3 6.8 283 11.8
2007-02-09 08:05:39 51°16.122 2°54.183 291.8 7.6 284 11.8
2007-02-09 08:05:44 51°16.124 2°54.164 289.8 8.7 279 11.8
2007-02-09 08:05:49 51°16.125 2°54.143 285.9 9.7 277 11.7
2007-02-09 08:05:53 51°16.126 2°54.124 282.9 10.4 275 11.8
2007-02-09 08:05:58 51°16.127 2°54.101 280.5 11 272 11.7
2007-02-09 08:06:04 51°16.127 2°54.07 278 11.4 270 11.7
2007-02-09 08:06:09 51°16.127 2°54.044 275.3 11.9 269 11.6
2007-02-09 08:06:13 51°16.126 2°54.022 273 12.2 267 11.6
2007-02-09 08:06:18 51°16.125 2°53.995 271.7 12.6 266 11.7
2007-02-09 08:06:24 51°16.123 2°53.961 270.7 12.9 265 11.7
2007-02-09 08:06:29 51°16.121 2°53.932 269.4 13.1 264 11.5
2007-02-09 08:06:34 51°16.119 2°53.903 268.3 13.3 264 11.7
2007-02-09 08:06:38 51°16.118 2°53.879 268.2 13.5 264 11.6
2007-02-09 08:06:44 51°16.115 2°53.842 267.7 13.8 264 11.8
2007-02-09 08:06:48 51°16.113 2°53.819 268 13.7 263 11.7
2007-02-09 08:06:53 51°16.111 2°53.788 267.8 13.8 263 11.8
2007-02-09 08:06:59 51°16.109 2°53.751 267.8 13.9 264 11.7
2007-02-09 08:07:04 51°16.106 2°53.721 268.2 13.9 264 11.8
2007-02-09 08:07:09 51°16.104 2°53.69 267.7 14.1 263 11.7
2007-02-09 08:07:14 51°16.102 2°53.659 268.3 14 265 11.7
2007-02-09 08:07:18 51°16.1 2°53.635 268.5 14 263 11.8
2007-02-09 08:07:24 51°16.098 2°53.598 268 14 264 11.8
2007-02-09 08:07:28 51°16.096 2°53.573 268 14.1 264 11.8
2007-02-09 08:07:34 51°16.094 2°53.535 268.4 14.1 265 11.9
2007-02-09 08:07:39 51°16.092 2°53.505 268.9 14.1 264 11.9
2007-02-09 08:07:44 51°16.09 2°53.474 268.7 14.1 265 11.9
2007-02-09 08:07:48 51°16.089 2°53.449 269.2 14.1 265 12
2007-02-09 08:07:54 51°16.086 2°53.412 269.2 14.1 264 12
2007-02-09 08:07:58 51°16.085 2°53.387 269.1 14.1 264 12.1
2007-02-09 08:08:04 51°16.083 2°53.349 268.6 14.1 264 11.9
2007-02-09 08:08:08 51°16.081 2°53.325 268.6 14.2 265 12.1
2007-02-09 08:08:13 51°16.079 2°53.293 269.1 14.2 264 12
2007-02-09 08:08:19 51°16.078 2°53.256 269.1 14.1 266 12.2
2007-02-09 08:08:24 51°16.075 2°53.225 268.7 14.1 264 12.1
2007-02-09 08:08:29 51°16.075 2°53.194 269.2 14.1 267 12.2
2007-02-09 08:08:34 51°16.072 2°53.163 269.6 14.2 264 12.1
2007-02-09 08:08:38 51°16.072 2°53.138 269.7 14.1 267 12.1
2007-02-09 08:08:44 51°16.07 2°53.1 269.9 14.2 265 12.3
2007-02-09 08:08:49 51°16.069 2°53.069 270.4 14.1 266 12.2
2007-02-09 08:08:53 51°16.067 2°53.044 269.3 14.2 266 12.2
2007-02-09 08:08:58 51°16.067 2°53.013 269.4 14.2 266 12.3
2007-02-09 08:09:04 51°16.065 2°52.975 269.6 14.2 267 12.2
2007-02-09 08:09:09 51°16.063 2°52.944 269.3 14.2 266 12.3
2007-02-09 08:09:13 51°16.063 2°52.919 270 14.2 267 12.4
2007-02-09 08:09:18 51°16.061 2°52.887 269.7 14.3 266 12.5
2007-02-09 08:09:24 51°16.06 2°52.85 269.7 14.3 267 12.6
2007-02-09 08:09:28 51°16.059 2°52.825 269.6 14.2 266 12.5
2007-02-09 08:09:34 51°16.057 2°52.787 269.2 14.2 265 12.4
2007-02-09 08:09:37 51°16.056 2°52.768 268.6 14.2 265 12.4
2007-02-09 08:09:44 51°16.053 2°52.724 267.8 14.3 265 12.4
2007-02-09 08:09:49 51°16.052 2°52.693 267.6 14.2 265 12.6
2007-02-09 08:09:54 51°16.05 2°52.662 267.3 14.2 264 12.6
2007-02-09 08:09:58 51°16.048 2°52.637 267.3 14.2 264 12.5
2007-02-09 08:10:04 51°16.046 2°52.599 267.8 14.2 266 12.5
2007-02-09 08:10:09 51°16.044 2°52.568 267.8 14.3 263 12.5
2007-02-09 08:10:14 51°16.043 2°52.536 267.9 14.3 267 12.5
2007-02-09 08:10:18 51°16.041 2°52.511 268.4 14.2 265 12.5
2007-02-09 08:10:24 51°16.039 2°52.473 268 14.3 265 12.5
2007-02-09 08:10:29 51°16.038 2°52.442 268 14.2 265 12.5
2007-02-09 08:10:33 51°16.036 2°52.417 268.3 14.3 266 12.5
2007-02-09 08:10:39 51°16.035 2°52.379 268.8 14.3 266 12.5
2007-02-09 08:10:44 51°16.034 2°52.347 269.4 14.2 267 12.6
2007-02-09 08:10:49 51°16.032 2°52.316 269.4 14.2 265 12.6
2007-02-09 08:10:53 51°16.031 2°52.291 268.6 14.2 267 12.6
2007-02-09 08:10:58 51°16.03 2°52.26 269.6 14.2 266 12.7
2007-02-09 08:11:03 51°16.028 2°52.228 268.7 14.2 266 12.8
2007-02-09 08:11:09 51°16.027 2°52.191 269.2 14.2 266 12.6
2007-02-09 08:11:13 51°16.026 2°52.166 269.5 14.2 267 12.7
2007-02-09 08:11:19 51°16.024 2°52.128 269.3 14.2 265 12.6
2007-02-09 08:11:24 51°16.023 2°52.097 269.6 14.2 267 12.8
2007-02-09 08:11:29 51°16.022 2°52.065 269.7 14.2 265 12.8
2007-02-09 08:11:33 51°16.021 2°52.04 269.2 14.1 267 12.7
2007-02-09 08:11:39 51°16.019 2°52.003 269.5 14.2 266 12.7
2007-02-09 08:11:44 51°16.018 2°51.971 269.8 14.3 266 12.8
2007-02-09 08:11:49 51°16.017 2°51.94 269.4 14.2 267 12.9
2007-02-09 08:11:54 51°16.016 2°51.909 269.9 14.1 266 12.9
2007-02-09 08:11:58 51°16.015 2°51.884 269.2 14.2 267 13
2007-02-09 08:12:04 51°16.013 2°51.846 269.8 14.3 267 13
2007-02-09 08:12:08 51°16.012 2°51.821 269.7 14.3 266 13.1
2007-02-09 08:12:14 51°16.011 2°51.783 269.7 14.2 266 13
2007-02-09 08:12:19 51°16.009 2°51.752 269.5 14.2 266 12.9
2007-02-09 08:12:24 51°16.008 2°51.72 269.3 14.2 266 13.1
2007-02-09 08:12:28 51°16.007 2°51.695 270 14.3 266 13
2007-02-09 08:12:34 51°16.005 2°51.658 270.3 14.2 266 13
2007-02-09 08:12:38 51°16.004 2°51.633 269.3 14.2 265 13
2007-02-09 08:12:44 51°16.002 2°51.595 269.9 14.2 266 13.1
2007-02-09 08:12:48 51°16.001 2°51.57 270.3 14.2 265 13
2007-02-09 08:12:53 51°16 2°51.539 269.7 14.2 267 13
2007-02-09 08:12:58 51°15.999 2°51.507 270.1 14.3 264 13
2007-02-09 08:13:04 51°15.997 2°51.47 270.4 14.2 267 13.1
2007-02-09 08:13:09 51°15.996 2°51.439 270 14.2 265 13
2007-02-09 08:13:14 51°15.995 2°51.407 269.2 14.2 268 13
2007-02-09 08:13:18 51°15.993 2°51.382 270.5 14.2 266 12.9
2007-02-09 08:13:24 51°15.992 2°51.345 270.2 14.1 267 13.1
2007-02-09 08:13:28 51°15.991 2°51.32 270.4 14.2 266 13.2
2007-02-09 08:13:33 51°15.989 2°51.288 270.1 14.2 266 13.1
2007-02-09 08:13:38 51°15.988 2°51.257 270.1 14.3 266 13.2
2007-02-09 08:13:44 51°15.986 2°51.219 269.5 14.2 266 13.1
2007-02-09 08:13:49 51°15.984 2°51.188 270 14.3 264 13.3
2007-02-09 08:13:54 51°15.983 2°51.156 269.5 14.2 267 13.2
2007-02-09 08:13:58 51°15.982 2°51.131 269.6 14.3 265 13.1
2007-02-09 08:14:04 51°15.981 2°51.093 269.3 14.2 268 13.2
2007-02-09 08:14:09 51°15.981 2°51.062 271.3 14.2 270 13.2
2007-02-09 08:14:14 51°15.982 2°51.03 275.3 14.3 274 13.2
2007-02-09 08:14:18 51°15.983 2°51.005 277.4 14.2 275 13.1
2007-02-09 08:14:24 51°15.986 2°50.968 279.6 14.2 276 13.1
2007-02-09 08:14:29 51°15.988 2°50.937 280.2 14.2 276 13.2
2007-02-09 08:14:34 51°15.99 2°50.906 281 14.2 278 13.3
2007-02-09 08:14:37 51°15.992 2°50.887 282.3 14.2 278 13.2
2007-02-09 08:14:44 51°15.996 2°50.844 282.4 14.1 278 12.9
2007-02-09 08:14:49 51°15.999 2°50.813 283 14.1 278 12.7
2007-02-09 08:14:53 51°16.001 2°50.788 283.7 14.1 279 12.8
2007-02-09 08:14:59 51°16.005 2°50.751 283.6 14.2 278 12.6
2007-02-09 08:15:04 51°16.007 2°50.72 283.1 14.2 277 12.5
2007-02-09 08:15:09 51°16.01 2°50.689 282.7 14.2 278 12.3
2007-02-09 08:15:13 51°16.012 2°50.664 283.1 14.1 278 12.3
2007-02-09 08:15:18 51°16.016 2°50.634 283 14.1 279 12
2007-02-09 08:15:24 51°16.019 2°50.597 283.3 14.1 278 11.7
2007-02-09 08:15:29 51°16.022 2°50.566 283.6 14 279 11.6
2007-02-09 08:15:33 51°16.024 2°50.541 283 14 278 11.2
2007-02-09 08:15:37 51°16.026 2°50.517 283 14 280 10.9
2007-02-09 08:15:44 51°16.03 2°50.474 282.8 14.1 277 10.7
2007-02-09 08:15:49 51°16.033 2°50.443 283.4 14 279 10.5
2007-02-09 08:15:53 51°16.035 2°50.419 283.2 14 277 10.6
2007-02-09 08:15:59 51°16.039 2°50.382 282.9 13.9 280 10.4
2007-02-09 08:16:04 51°16.042 2°50.352 283.2 14 279 10.3
2007-02-09 08:16:09 51°16.044 2°50.321 283.1 14.1 278 10.2
2007-02-09 08:16:14 51°16.048 2°50.29 282.9 14.1 280 10.1
2007-02-09 08:16:18 51°16.05 2°50.265 283.8 14.1 278 10.2
2007-02-09 08:16:24 51°16.054 2°50.229 283.2 14.2 279 10
2007-02-09 08:16:28 51°16.056 2°50.204 283 14.1 279 10.2
2007-02-09 08:16:34 51°16.059 2°50.167 283.5 14 278 10.1
2007-02-09 08:16:39 51°16.063 2°50.136 282.4 14.1 280 10.2
2007-02-09 08:16:44 51°16.066 2°50.105 282.8 14.2 278 10.3
2007-02-09 08:16:48 51°16.068 2°50.081 282.8 14.2 280 10.4
2007-02-09 08:16:54 51°16.072 2°50.043 283 14.2 279 10.6
2007-02-09 08:16:58 51°16.074 2°50.018 283.4 14.2 279 10.7
2007-02-09 08:17:04 51°16.078 2°49.981 283.2 14.3 279 10.7
2007-02-09 08:17:08 51°16.081 2°49.956 283.1 14.2 278 10.9
2007-02-09 08:17:13 51°16.084 2°49.925 282.8 14.3 279 10.7
2007-02-09 08:17:19 51°16.088 2°49.887 282.7 14.4 279 10.9
2007-02-09 08:17:24 51°16.091 2°49.857 283.1 14.2 279 11
2007-02-09 08:17:29 51°16.094 2°49.825 282.7 14.2 278 10.9
2007-02-09 08:17:34 51°16.097 2°49.794 282.5 14.3 279 11.1
2007-02-09 08:17:38 51°16.099 2°49.769 282.5 14.3 279 11.3
2007-02-09 08:17:44 51°16.103 2°49.732 283.3 14.2 279 11.1
2007-02-09 08:17:48 51°16.106 2°49.707 283 14.2 280 11.3
2007-02-09 08:17:53 51°16.109 2°49.676 282.9 14.2 278 11.3
2007-02-09 08:17:58 51°16.112 2°49.645 282.3 14.2 279 11.3
2007-02-09 08:18:04 51°16.115 2°49.607 282.2 14.2 278 11.3
2007-02-09 08:18:09 51°16.118 2°49.576 282.4 14.2 279 11.3
2007-02-09 08:18:14 51°16.121 2°49.545 282.1 14.2 278 11.5
2007-02-09 08:18:18 51°16.123 2°49.52 282.3 14.2 278 11.5
2007-02-09 08:18:24 51°16.126 2°49.482 282.2 14.2 278 11.7
2007-02-09 08:18:28 51°16.128 2°49.457 282.2 14.2 277 11.6
2007-02-09 08:18:33 51°16.131 2°49.426 281.9 14.3 278 11.8
2007-02-09 08:18:39 51°16.134 2°49.389 282.1 14.3 278 11.9
2007-02-09 08:18:44 51°16.137 2°49.357 282.4 14.3 279 12
2007-02-09 08:18:48 51°16.139 2°49.332 282.6 14.3 278 12.3
2007-02-09 08:18:54 51°16.143 2°49.295 282.5 14.3 278 12.3
2007-02-09 08:18:58 51°16.145 2°49.27 282.5 14.3 279 12.5
2007-02-09 08:19:04 51°16.148 2°49.232 282.5 14.2 278 12.4
2007-02-09 08:19:09 51°16.151 2°49.201 282.8 14.2 278 12.6
2007-02-09 08:19:14 51°16.153 2°49.17 282.4 14.1 277 12.6
2007-02-09 08:19:18 51°16.155 2°49.145 282.1 14.2 276 12.8
2007-02-09 08:19:24 51°16.156 2°49.107 278.8 14.2 272 12.9
2007-02-09 08:19:29 51°16.156 2°49.076 277 14.3 271 13.1
2007-02-09 08:19:33 51°16.156 2°49.051 275.3 14.3 270 13.4
2007-02-09 08:19:39 51°16.156 2°49.013 274.3 14.3 269 13.8
2007-02-09 08:19:44 51°16.155 2°48.981 273.2 14.3 267 13.9
2007-02-09 08:19:49 51°16.155 2°48.95 272.4 14.4 268 14
2007-02-09 08:19:53 51°16.153 2°48.924 272.1 14.3 266 14.2
2007-02-09 08:19:58 51°16.152 2°48.893 270.9 14.3 264 14.3
2007-02-09 08:20:04 51°16.146 2°48.856 265.6 14.3 258 14.4
2007-02-09 08:20:09 51°16.142 2°48.825 262.7 13.9 257 14.5
2007-02-09 08:20:13 51°16.138 2°48.804 259.8 12.9 252 14.5
2007-02-09 08:20:18 51°16.133 2°48.778 256.9 12 253 14.4
2007-02-09 08:20:24 51°16.126 2°48.75 255.1 11.1 249 14.6
2007-02-09 08:20:29 51°16.12 2°48.73 252.1 10.2 244 14.8
2007-02-09 08:20:33 51°16.115 2°48.716 247 9.3 238 14.8
2007-02-09 08:20:39 51°16.107 2°48.697 241 8.4 235 14.7
2007-02-09 08:20:44 51°16.099 2°48.685 234.7 7.8 226 14.7
2007-02-09 08:20:49 51°16.092 2°48.674 228.5 7.2 223 14.7
2007-02-09 08:20:54 51°16.084 2°48.665 221.6 6.8 215 14.8
2007-02-09 08:20:59 51°16.076 2°48.657 215.8 6.4 212 14.8
2007-02-09 08:21:04 51°16.068 2°48.651 210.1 6.3 207 14.6
2007-02-09 08:21:08 51°16.063 2°48.646 206.8 6.1 211 14.6
2007-02-09 08:21:14 51°16.054 2°48.639 207.4 5.9 207 14.7
2007-02-09 08:21:18 51°16.049 2°48.633 208.5 5.9 215 14.7
2007-02-09 08:21:24 51°16.04 2°48.625 211.5 5.7 210 14.7
2007-02-09 08:21:28 51°16.036 2°48.619 212.7 5.7 219 14.7
2007-02-09 08:21:33 51°16.029 2°48.612 215.2 5.6 214 14.8
2007-02-09 08:21:39 51°16.022 2°48.603 218.1 5.3 220 14.6
2007-02-09 08:21:44 51°16.016 2°48.595 218.5 5.4 219 14.5
2007-02-09 08:21:49 51°16.011 2°48.587 220.9 5.2 226 14.7
2007-02-09 08:21:54 51°16.006 2°48.579 223.7 5.2 224 14.7
2007-02-09 08:21:58 51°16.002 2°48.572 227.1 5.1 230 14.5
2007-02-09 08:22:04 51°15.997 2°48.562 228.9 4.9 232 14.5
2007-02-09 08:22:08 51°15.994 2°48.555 232.4 4.8 232 14.6
2007-02-09 08:22:13 51°15.99 2°48.547 235.5 4.7 236 14.6
2007-02-09 08:22:18 51°15.987 2°48.538 238 4.6 239 14.6
2007-02-09 08:22:24 51°15.983 2°48.527 241.5 4.5 240 14.6
2007-02-09 08:22:29 51°15.98 2°48.518 244.1 4.5 244 14.5
2007-02-09 08:22:34 51°15.978 2°48.51 247.3 4.4 246 14.5
2007-02-09 08:22:38 51°15.976 2°48.502 250 4.4 246 14.5
2007-02-09 08:22:44 51°15.973 2°48.492 252.5 4.3 252 14.5
2007-02-09 08:22:48 51°15.971 2°48.485 253.5 4.3 247 14.5
2007-02-09 08:22:53 51°15.97 2°48.475 254.6 4.2 251 14.5
2007-02-09 08:22:59 51°15.967 2°48.465 255.1 4.3 250 14.6
2007-02-09 08:23:04 51°15.966 2°48.456 255.9 4.2 253 14.6
2007-02-09 08:23:08 51°15.964 2°48.449 256.4 4.1 252 14.6
2007-02-09 08:23:14 51°15.962 2°48.439 256.6 4.2 249 14.8
2007-02-09 08:23:18 51°15.96 2°48.432 256.9 4.1 252 14.7
2007-02-09 08:23:24 51°15.958 2°48.422 256.5 4.1 250 14.7
2007-02-09 08:23:28 51°15.957 2°48.415 256 4.1 252 14.6
2007-02-09 08:23:33 51°15.955 2°48.406 256.1 4.1 251 14.7
2007-02-09 08:23:39 51°15.953 2°48.396 256.1 4.1 251 14.7
2007-02-09 08:23:44 51°15.951 2°48.387 256 4.1 253 14.8
2007-02-09 08:23:48 51°15.95 2°48.38 256.2 4.1 251 14.9
2007-02-09 08:23:54 51°15.948 2°48.37 256.4 4.1 254 14.8
2007-02-09 08:23:58 51°15.946 2°48.363 256.2 4.1 250 14.7
2007-02-09 08:24:04 51°15.944 2°48.353 256 4.1 251 14.7
2007-02-09 08:24:08 51°15.943 2°48.346 255.5 4.1 254 14.8
2007-02-09 08:24:13 51°15.941 2°48.337 255.9 4.1 249 14.8
2007-02-09 08:24:19 51°15.939 2°48.327 255.3 4.1 252 14.7
2007-02-09 08:24:24 51°15.936 2°48.318 254.6 4.1 249 14.8
2007-02-09 08:24:29 51°15.935 2°48.31 254.3 4.1 251 14.8
2007-02-09 08:24:34 51°15.933 2°48.302 253.7 4.1 248 14.8
2007-02-09 08:24:38 51°15.931 2°48.294 252.9 4.1 253 14.7
2007-02-09 08:24:44 51°15.929 2°48.285 252.3 4.1 249 14.8
2007-02-09 08:24:49 51°15.927 2°48.276 252 4.1 248 14.8
2007-02-09 08:24:53 51°15.925 2°48.27 251.2 4.1 246 14.7
2007-02-09 08:24:58 51°15.923 2°48.261 250.8 4 246 14.7
2007-02-09 08:25:04 51°15.92 2°48.252 249.8 4 246 14.7
2007-02-09 08:25:09 51°15.918 2°48.243 249.1 4 246 14.7
2007-02-09 08:25:14 51°15.915 2°48.235 248.8 4 247 14.8
2007-02-09 08:25:18 51°15.913 2°48.229 248.6 4 246 14.8
2007-02-09 08:25:24 51°15.911 2°48.219 248.5 3.9 244 14.8
2007-02-09 08:25:29 51°15.908 2°48.211 248 4 245 14.8
2007-02-09 08:25:34 51°15.906 2°48.203 247.5 3.9 244 14.9
2007-02-09 08:25:37 51°15.905 2°48.199 247.4 3.8 243 14.8
2007-02-09 08:25:44 51°15.901 2°48.188 246.6 3.8 241 14.7
2007-02-09 08:25:49 51°15.899 2°48.18 245.9 3.9 244 14.7
2007-02-09 08:25:54 51°15.896 2°48.173 245.1 3.8 242 14.7
2007-02-09 08:25:59 51°15.894 2°48.166 245 3.8 241 14.7
2007-02-09 08:26:04 51°15.891 2°48.158 244.1 3.8 241 14.6
2007-02-09 08:26:09 51°15.888 2°48.151 243.1 3.8 243 14.5
2007-02-09 08:26:13 51°15.886 2°48.145 243 3.8 239 14.6
2007-02-09 08:26:19 51°15.883 2°48.136 242.4 3.8 242 14.6
2007-02-09 08:26:24 51°15.88 2°48.129 241.7 3.8 238 14.6
2007-02-09 08:26:29 51°15.878 2°48.122 241.8 3.8 239 14.6
2007-02-09 08:26:34 51°15.875 2°48.114 241 3.9 237 14.6
2007-02-09 08:26:38 51°15.873 2°48.108 240.7 3.8 238 14.7
2007-02-09 08:26:44 51°15.869 2°48.1 240.7 3.9 237 14.6
2007-02-09 08:26:48 51°15.867 2°48.094 240 3.9 243 14.7
2007-02-09 08:26:53 51°15.864 2°48.087 240.3 3.9 232 14.8
2007-02-09 08:26:58 51°15.861 2°48.079 239.9 3.9 240 14.6
2007-02-09 08:27:04 51°15.858 2°48.072 239.2 3.8 233 14.6
2007-02-09 08:27:09 51°15.855 2°48.064 239 3.8 237 14.6
2007-02-09 08:27:14 51°15.852 2°48.057 239.1 3.8 235 14.6
2007-02-09 08:27:18 51°15.85 2°48.052 239 3.8 237 14.6
2007-02-09 08:27:24 51°15.846 2°48.043 238.8 3.8 239 14.7
2007-02-09 08:27:28 51°15.844 2°48.038 239.4 3.8 234 14.7
2007-02-09 08:27:34 51°15.84 2°48.029 240 3.8 238 14.5
2007-02-09 08:27:39 51°15.837 2°48.022 239.4 3.9 238 14.5
2007-02-09 08:27:44 51°15.834 2°48.015 239.4 3.9 238 14.6
2007-02-09 08:27:49 51°15.832 2°48.008 239.5 3.8 236 14.5
2007-02-09 08:27:54 51°15.829 2°48.001 239.5 3.8 238 14.5
2007-02-09 08:27:58 51°15.827 2°47.995 239.5 3.8 237 14.6
2007-02-09 08:28:04 51°15.823 2°47.987 239.8 3.8 237 14.5
2007-02-09 08:28:08 51°15.821 2°47.981 240 3.8 236 14.5
2007-02-09 08:28:14 51°15.817 2°47.972 240 3.8 238 14.5
2007-02-09 08:28:19 51°15.814 2°47.965 240.7 3.9 238 14.6
2007-02-09 08:28:24 51°15.812 2°47.958 241.2 3.9 238 14.7
2007-02-09 08:28:29 51°15.809 2°47.951 241.4 3.9 239 14.6
2007-02-09 08:28:34 51°15.806 2°47.943 241.8 3.9 238 14.6
2007-02-09 08:28:38 51°15.804 2°47.938 242.2 3.9 243 14.6
2007-02-09 08:28:44 51°15.801 2°47.929 243 3.9 238 14.6
2007-02-09 08:28:48 51°15.799 2°47.923 243.4 3.8 240 14.5
2007-02-09 08:28:53 51°15.796 2°47.916 243.6 3.9 241 14.5
2007-02-09 08:28:58 51°15.793 2°47.908 243.5 3.9 240 14.5
2007-02-09 08:29:04 51°15.79 2°47.899 244.1 3.8 241 14.5
2007-02-09 08:29:09 51°15.788 2°47.892 244 3.9 241 14.5
2007-02-09 08:29:14 51°15.786 2°47.884 244.5 3.9 243 14.6
2007-02-09 08:29:18 51°15.783 2°47.878 244.6 3.9 239 14.6
2007-02-09 08:29:24 51°15.781 2°47.869 244.8 3.9 242 14.6
2007-02-09 08:29:29 51°15.778 2°47.861 244.6 3.9 242 14.6
2007-02-09 08:29:34 51°15.775 2°47.854 244.6 3.8 241 14.5
2007-02-09 08:29:37 51°15.774 2°47.849 244.7 3.9 240 14.5
2007-02-09 08:29:44 51°15.77 2°47.839 244.4 3.9 241 14.5
2007-02-09 08:29:49 51°15.767 2°47.832 244 3.8 240 14.4
2007-02-09 08:29:54 51°15.765 2°47.825 244.1 3.7 241 14.4
2007-02-09 08:29:58 51°15.762 2°47.818 243.9 3.7 240 14.3
2007-02-09 08:30:04 51°15.759 2°47.81 243.8 3.7 240 14.3
2007-02-09 08:30:09 51°15.757 2°47.802 244 3.7 243 14.3
2007-02-09 08:30:14 51°15.754 2°47.795 244.6 3.8 241 14.4
2007-02-09 08:30:18 51°15.753 2°47.789 244.8 3.8 242 14.5
2007-02-09 08:30:24 51°15.75 2°47.78 245.4 3.8 241 14.5
2007-02-09 08:30:29 51°15.748 2°47.773 245.5 3.8 242 14.5
2007-02-09 08:30:34 51°15.745 2°47.765 245.5 3.8 243 14.5
2007-02-09 08:30:37 51°15.743 2°47.761 246 3.8 244 14.5
2007-02-09 08:30:44 51°15.74 2°47.75 246.1 3.9 241 14.6
2007-02-09 08:30:49 51°15.738 2°47.743 246.6 3.8 244 14.5
2007-02-09 08:30:53 51°15.735 2°47.737 246.1 3.8 241 14.3
2007-02-09 08:30:59 51°15.733 2°47.728 246 3.8 242 14.3
2007-02-09 08:31:04 51°15.73 2°47.72 245.8 3.8 243 14.4
2007-02-09 08:31:09 51°15.727 2°47.713 245.7 3.8 241 14.4
2007-02-09 08:31:13 51°15.726 2°47.707 245.3 3.8 241 14.3
2007-02-09 08:31:19 51°15.723 2°47.698 244.5 3.9 243 14.4
2007-02-09 08:31:24 51°15.72 2°47.691 244.1 3.8 240 14.4
2007-02-09 08:31:29 51°15.717 2°47.684 243.8 3.8 240 14.3
2007-02-09 08:31:33 51°15.715 2°47.678 243.3 3.8 241 14.3
2007-02-09 08:31:39 51°15.712 2°47.669 243.2 3.9 239 14.3
2007-02-09 08:31:44 51°15.709 2°47.661 243.1 3.8 242 14.3
2007-02-09 08:31:49 51°15.707 2°47.654 243.1 3.8 240 14.3
2007-02-09 08:31:54 51°15.704 2°47.646 243.2 3.8 242 14.3
2007-02-09 08:31:58 51°15.702 2°47.64 243.6 3.9 240 14.3
2007-02-09 08:32:04 51°15.699 2°47.631 243.4 3.9 244 14.2
2007-02-09 08:32:08 51°15.697 2°47.625 243.6 3.9 240 14.3
2007-02-09 08:32:14 51°15.694 2°47.616 243.6 3.8 244 14.2
2007-02-09 08:32:19 51°15.691 2°47.609 243.8 3.9 240 14.2
2007-02-09 08:32:24 51°15.689 2°47.601 243.8 3.9 245 14.2
2007-02-09 08:32:28 51°15.687 2°47.595 244.1 3.9 241 14.2
2007-02-09 08:32:34 51°15.684 2°47.586 244 3.9 243 14.3
2007-02-09 08:32:38 51°15.682 2°47.58 244.5 3.8 241 14.2
2007-02-09 08:32:44 51°15.679 2°47.571 244 3.8 240 14.2
2007-02-09 08:32:48 51°15.677 2°47.565 243.1 3.8 242 14.1
2007-02-09 08:32:54 51°15.674 2°47.556 242.8 3.8 238 14.2
2007-02-09 08:32:59 51°15.671 2°47.549 242.4 3.8 241 14.1
2007-02-09 08:33:04 51°15.668 2°47.542 242 3.8 239 14.1
2007-02-09 08:33:09 51°15.666 2°47.535 242.2 3.8 239 14.1
2007-02-09 08:33:14 51°15.663 2°47.527 242 3.8 240 14.2
2007-02-09 08:33:18 51°15.661 2°47.522 241.8 3.8 237 14.2
2007-02-09 08:33:24 51°15.658 2°47.513 241.6 3.8 240 14.2
2007-02-09 08:33:28 51°15.656 2°47.507 241.3 3.7 236 14.1
2007-02-09 08:33:33 51°15.653 2°47.5 240.6 3.8 240 14.1
2007-02-09 08:33:39 51°15.649 2°47.492 240.9 3.8 236 14.1
2007-02-09 08:33:44 51°15.647 2°47.485 240.9 3.8 240 14.1
2007-02-09 08:33:49 51°15.644 2°47.478 241.1 3.8 237 14.1
2007-02-09 08:33:54 51°15.641 2°47.47 241.3 3.8 240 14.1
2007-02-09 08:33:58 51°15.639 2°47.465 241.4 3.8 237 14.1
2007-02-09 08:34:04 51°15.635 2°47.456 241.5 3.8 238 14.2
2007-02-09 08:34:08 51°15.633 2°47.45 241.6 3.8 236 14
2007-02-09 08:34:13 51°15.63 2°47.443 241.3 3.8 242 13.9
2007-02-09 08:34:19 51°15.627 2°47.435 241.5 3.8 236 13.9
2007-02-09 08:34:24 51°15.624 2°47.427 241.7 3.8 239 13.8
2007-02-09 08:34:29 51°15.622 2°47.42 241.4 3.8 240 13.9
2007-02-09 08:34:34 51°15.619 2°47.413 241.5 3.8 238 13.9
2007-02-09 08:34:38 51°15.617 2°47.407 241.7 3.9 235 13.9
2007-02-09 08:34:44 51°15.613 2°47.399 241.4 3.9 243 14
2007-02-09 08:34:49 51°15.61 2°47.392 241.7 3.9 233 14